Time;durP1;ratioP1;P1;durP2;ratioP2;P2;SDS_P1;SDS_P2;PMS_P1;PMS_P2;Temp;Humidity;BMP_temperature;BMP_pressure;BME280_temperature;BME280_humidity;BME280_pressure;Samples;Min_cycle;Max_cycle;Signal;HPM_P1;HPM_P2
2021/07/28 00:00:13;;;;;;;43.05;21.73;;;;;;;13.54;94.00;101080.09;4993929;28;20105;-73
2021/07/28 00:02:40;;;;;;;39.65;21.55;;;;;;;13.50;94.42;101062.69;4993227;28;20037;-73
2021/07/28 00:05:06;;;;;;;38.95;19.85;;;;;;;13.50;94.57;101065.34;4993665;28;20034;-73
2021/07/28 00:07:31;;;;;;;41.47;20.00;;;;;;;13.46;94.48;101057.78;4993114;28;20045;-73
2021/07/28 00:09:56;;;;;;;36.50;18.63;;;;;;;13.47;94.20;101059.47;4993861;28;20034;-73
2021/07/28 00:12:22;;;;;;;38.05;20.38;;;;;;;13.45;94.25;101056.97;4993833;28;20041;-74
2021/07/28 00:14:47;;;;;;;35.22;18.98;;;;;;;13.45;93.98;101051.63;4993145;28;20402;-73
2021/07/28 00:17:13;;;;;;;41.65;19.77;;;;;;;13.45;94.02;101051.63;4991990;28;20046;-73
2021/07/28 00:20:19;;;;;;;47.90;20.63;;;;;;;13.41;94.00;101052.91;4992765;28;20070;-74
2021/07/28 00:25:21;;;;;;;47.70;20.95;;;;;;;13.37;94.04;101046.19;4993135;28;20124;-73
2021/07/28 00:27:49;;;;;;;39.00;20.23;;;;;;;13.35;94.16;101046.34;4992569;28;20471;-73
2021/07/28 00:30:15;;;;;;;49.15;20.90;;;;;;;13.31;94.11;101047.59;4993509;28;20038;-73
2021/07/28 00:32:40;;;;;;;53.95;22.58;;;;;;;13.30;94.52;101047.75;4992930;28;20029;-73
2021/07/28 00:35:06;;;;;;;51.83;22.85;;;;;;;13.33;94.65;101042.09;4993213;28;20058;-73
2021/07/28 00:37:32;;;;;;;56.03;22.67;;;;;;;13.33;94.59;101044.75;4992619;28;20038;-73
2021/07/28 00:39:57;;;;;;;46.33;21.05;;;;;;;13.31;94.33;101041.41;4993102;28;20089;-73
2021/07/28 00:42:22;;;;;;;49.00;22.50;;;;;;;13.29;94.50;101035.41;4993106;28;20038;-74
2021/07/28 00:44:48;;;;;;;47.78;21.42;;;;;;;13.28;94.80;101041.72;4992714;28;20446;-73
2021/07/28 00:47:14;;;;;;;45.63;19.73;;;;;;;13.30;94.38;101043.25;4993337;28;20026;-73
2021/07/28 00:49:40;;;;;;;49.92;22.92;;;;;;;13.30;94.51;101024.56;4992716;28;20035;-73
2021/07/28 00:52:06;;;;;;;49.35;21.63;;;;;;;13.31;94.94;101038.75;4993159;28;20026;-73
2021/07/28 00:54:32;;;;;;;56.17;22.00;;;;;;;13.32;94.70;101025.22;4992670;28;20142;-73
2021/07/28 00:56:58;;;;;;;55.15;22.73;;;;;;;13.34;94.88;101025.94;4992783;28;20064;-73
2021/07/28 00:59:25;;;;;;;53.20;22.70;;;;;;;13.38;94.78;101026.50;4993255;28;20034;-73
2021/07/28 01:01:52;;;;;;;58.75;24.10;;;;;;;13.36;95.01;101023.97;4992548;28;20035;-73
2021/07/28 01:04:18;;;;;;;51.35;22.20;;;;;;;13.32;94.97;101019.88;4992767;28;20056;-74
2021/07/28 01:06:43;;;;;;;63.78;23.73;;;;;;;13.28;94.77;101018.50;4992481;28;20058;-74
2021/07/28 01:09:09;;;;;;;57.53;24.48;;;;;;;13.24;94.83;101011.78;4992877;28;20036;-73
2021/07/28 01:11:36;;;;;;;58.83;24.23;;;;;;;13.20;94.60;101016.59;4992246;28;20030;-73
2021/07/28 01:14:04;;;;;;;88.63;29.35;;;;;;;13.18;94.87;101012.38;4992969;28;20031;-73
2021/07/28 01:16:34;;;;;;;79.75;28.63;;;;;;;13.19;94.55;101014.06;4993859;28;20029;-73
2021/07/28 01:19:01;;;;;;;67.53;28.48;;;;;;;13.19;94.65;101014.06;4993285;28;20054;-73
2021/07/28 01:21:27;;;;;;;87.32;31.38;;;;;;;13.21;95.16;101012.09;4992842;28;20095;-73
2021/07/28 01:23:53;;;;;;;82.53;31.15;;;;;;;13.21;94.89;101004.94;4991054;28;20510;-74
2021/07/28 01:26:21;;;;;;;77.38;29.75;;;;;;;13.18;95.15;101002.56;4992516;28;20038;-73
2021/07/28 01:28:46;;;;;;;81.82;30.15;;;;;;;13.19;94.65;101004.22;4992345;28;20042;-73
2021/07/28 01:31:17;;;;;;;82.75;30.73;;;;;;;13.21;95.13;101002.25;4991776;28;20026;-73
2021/07/28 01:33:45;;;;;;;94.75;31.95;;;;;;;13.19;94.88;101011.41;4992121;28;20125;-73
2021/07/28 01:36:21;;;;;;;90.82;31.15;;;;;;;13.16;95.11;101001.84;4995673;28;20042;-73
2021/07/28 01:38:48;;;;;;;78.25;28.23;;;;;;;13.09;95.02;101000.78;4995777;28;20102;-73
2021/07/28 01:41:13;;;;;;;96.63;31.27;;;;;;;13.04;94.81;101000.41;4996537;28;20038;-73
2021/07/28 01:43:40;;;;;;;86.32;30.65;;;;;;;12.98;95.26;100993.81;4995985;28;20030;-73
2021/07/28 01:46:06;;;;;;;105.55;34.20;;;;;;;12.94;95.18;100988.94;4996448;28;20034;-73
2021/07/28 01:48:32;;;;;;;91.38;31.42;;;;;;;12.89;95.30;100986.72;4996357;28;20026;-73
2021/07/28 01:50:59;;;;;;;112.80;34.80;;;;;;;12.84;94.82;100987.19;4995741;28;20043;-73
2021/07/28 01:53:25;;;;;;;102.55;32.15;;;;;;;12.82;95.25;100993.66;4996182;28;20483;-73
2021/07/28 01:55:52;;;;;;;100.95;30.73;;;;;;;12.79;94.92;100985.94;4994215;28;20096;-73
2021/07/28 01:58:19;;;;;;;95.63;32.70;;;;;;;12.74;94.88;100981.06;4996278;28;20054;-73
2021/07/28 02:00:45;;;;;;;99.47;31.25;;;;;;;12.73;95.19;100984.72;4995557;28;20031;-73
2021/07/28 02:03:10;;;;;;;114.63;35.80;;;;;;;12.72;95.08;100988.38;4996422;28;20034;-74
2021/07/28 02:05:38;;;;;;;124.60;37.50;;;;;;;12.69;94.84;100988.69;4996119;28;20148;-72
2021/07/28 02:08:07;;;;;;;120.32;36.88;;;;;;;12.66;95.30;100989.00;4995358;28;20034;-73
2021/07/28 02:10:37;;;;;;;146.07;41.05;;;;;;;12.63;95.06;100987.44;4995906;28;20038;-73
2021/07/28 02:13:04;;;;;;;122.40;36.27;;;;;;;12.65;95.17;100981.97;4995238;28;20077;-73
2021/07/28 02:15:32;;;;;;;164.43;46.85;;;;;;;12.68;94.89;100973.66;4995728;28;20109;-73
2021/07/28 02:17:57;;;;;;;196.35;51.38;;;;;;;12.81;95.34;100978.66;4993957;28;20130;-73
2021/07/28 02:20:23;;;;;;;176.00;46.22;;;;;;;12.91;95.62;100974.06;4994341;28;20133;-73
2021/07/28 02:22:49;;;;;;;188.73;51.30;;;;;;;12.93;95.17;100972.09;4995355;28;20037;-73
2021/07/28 02:25:15;;;;;;;168.68;43.45;;;;;;;12.92;95.31;100978.41;4995577;28;20035;-73
2021/07/28 02:27:41;;;;;;;135.25;37.55;;;;;;;12.90;95.49;100977.72;4995436;28;20498;-73
2021/07/28 02:30:08;;;;;;;178.82;47.20;;;;;;;12.90;95.72;100971.53;4995508;28;20034;-73
2021/07/28 02:32:34;;;;;;;152.50;40.22;;;;;;;12.87;95.19;100976.19;4995423;28;20034;-73
2021/07/28 02:35:00;;;;;;;171.27;43.60;;;;;;;12.87;95.70;100980.72;4994876;28;20368;-73
2021/07/28 02:37:25;;;;;;;188.48;46.17;;;;;;;12.84;95.47;100981.84;4995529;28;20038;-73
2021/07/28 02:39:50;;;;;;;180.82;46.42;;;;;;;12.85;95.38;100974.66;4994892;28;20030;-73
2021/07/28 02:42:16;;;;;;;197.75;47.38;;;;;;;12.91;95.72;100976.72;4995203;28;20122;-73
2021/07/28 02:44:41;;;;;;;168.63;45.22;;;;;;;12.99;95.56;100970.66;4995264;28;20470;-73
2021/07/28 02:47:07;;;;;;;204.30;49.75;;;;;;;13.07;95.52;100972.56;4992749;28;20030;-72
2021/07/28 02:49:32;;;;;;;224.75;54.85;;;;;;;13.16;95.61;100971.63;4995126;28;20034;-73
2021/07/28 02:51:57;;;;;;;225.07;56.45;;;;;;;13.27;95.96;100973.22;4994701;28;20426;-73
2021/07/28 02:54:23;;;;;;;213.70;54.55;;;;;;;13.35;95.80;100979.53;4995296;28;20035;-73
2021/07/28 02:56:49;;;;;;;212.18;53.20;;;;;;;13.43;95.53;100980.59;4994303;28;20049;-73
2021/07/28 02:59:15;;;;;;;227.70;55.38;;;;;;;13.52;95.96;100979.66;4995030;28;20035;-73
2021/07/28 03:01:40;;;;;;;231.30;57.13;;;;;;;13.62;95.79;100983.09;4994896;28;20092;-72
2021/07/28 03:04:06;;;;;;;173.73;51.53;;;;;;;13.77;96.03;100975.34;4994200;28;20109;-71
2021/07/28 03:06:32;;;;;;;225.10;55.83;;;;;;;13.81;96.00;100974.03;4994440;28;20053;-73
2021/07/28 03:08:57;;;;;;;216.68;56.25;;;;;;;13.87;96.14;100975.25;4994212;28;20403;-73
2021/07/28 03:11:23;;;;;;;203.45;54.92;;;;;;;13.86;96.02;100973.56;4994705;28;20035;-73
2021/07/28 03:13:48;;;;;;;187.02;55.58;;;;;;;13.86;95.91;100968.22;4994151;28;20049;-73
2021/07/28 03:16:13;;;;;;;194.23;55.28;;;;;;;13.89;96.19;100968.72;4994682;28;20034;-73
2021/07/28 03:18:39;;;;;;;187.60;54.28;;;;;;;13.95;96.35;100964.59;4994299;28;20042;-72
2021/07/28 03:21:04;;;;;;;193.15;55.38;;;;;;;13.98;96.34;100969.63;4993888;28;20499;-72
2021/07/28 03:23:30;;;;;;;187.52;55.92;;;;;;;14.01;96.13;100966.63;4994643;28;20406;-72
2021/07/28 03:25:55;;;;;;;176.35;53.00;;;;;;;14.02;95.99;100967.47;4993924;28;20026;-73
2021/07/28 03:28:21;;;;;;;186.73;53.15;;;;;;;14.00;95.90;100970.31;4994713;28;20038;-73
2021/07/28 03:30:49;;;;;;;152.35;50.47;;;;;;;14.01;96.31;100973.81;4994418;28;20467;-73
2021/07/28 03:33:15;;;;;;;163.02;52.40;;;;;;;14.00;96.14;100964.97;4994235;28;20042;-73
2021/07/28 03:35:40;;;;;;;165.95;48.20;;;;;;;13.98;96.13;100964.25;4994385;28;20040;-73
2021/07/28 03:38:05;;;;;;;152.63;47.90;;;;;;;13.97;96.24;100957.22;4992517;28;20049;-73
2021/07/28 03:40:31;;;;;;;149.68;48.15;;;;;;;13.97;95.89;100951.03;4994436;28;20042;-73
2021/07/28 03:42:56;;;;;;;151.55;47.00;;;;;;;13.98;95.84;100953.56;4993581;28;20026;-74
2021/07/28 03:45:21;;;;;;;157.95;48.60;;;;;;;13.99;95.76;100957.06;4993980;28;20514;-73
2021/07/28 03:47:47;;;;;;;175.60;49.92;;;;;;;14.01;96.26;100965.78;4994211;28;20042;-72
2021/07/28 03:50:12;;;;;;;176.50;48.35;;;;;;;14.07;95.84;100954.44;4993219;28;20403;-72
2021/07/28 03:52:37;;;;;;;115.35;41.78;;;;;;;14.11;96.15;100955.81;4994063;28;20038;-72
2021/07/28 03:55:03;;;;;;;84.15;37.53;;;;;;;14.10;96.02;100951.44;4993500;28;20134;-73
2021/07/28 03:57:29;;;;;;;92.03;36.58;;;;;;;14.06;96.15;100955.44;4993529;28;20030;-72
2021/07/28 03:59:54;;;;;;;96.53;37.15;;;;;;;14.03;95.52;100956.63;4992579;28;20030;-72
2021/07/28 04:02:20;;;;;;;93.10;37.28;;;;;;;13.98;95.61;100961.59;4993776;28;20030;-72
2021/07/28 04:04:45;;;;;;;98.95;36.67;;;;;;;13.95;95.84;100964.59;4993724;28;20054;-72
2021/07/28 04:07:11;;;;;;;98.40;37.88;;;;;;;13.93;95.79;100966.59;4993160;28;20034;-73
2021/07/28 04:09:37;;;;;;;85.30;34.72;;;;;;;13.93;95.66;100961.25;4993732;28;20057;-72
2021/07/28 04:12:03;;;;;;;85.38;34.97;;;;;;;13.92;95.43;100963.06;4993290;28;20034;-72
2021/07/28 04:14:28;;;;;;;80.55;32.55;;;;;;;13.92;95.63;100955.03;4993608;28;20088;-72
2021/07/28 04:16:54;;;;;;;87.00;34.50;;;;;;;14.00;95.73;100967.63;4993010;28;20080;-73
2021/07/28 04:19:19;;;;;;;70.75;30.65;;;;;;;14.10;95.76;100952.28;4993372;28;20144;-73
2021/07/28 04:21:44;;;;;;;74.30;30.98;;;;;;;14.18;95.53;100964.88;4993752;28;20034;-73
2021/07/28 04:24:10;;;;;;;65.88;29.30;;;;;;;14.22;95.44;100957.38;4992989;28;20394;-73
2021/07/28 04:26:35;;;;;;;50.17;25.50;;;;;;;14.30;95.25;100957.38;4993329;28;20493;-72
2021/07/28 04:29:00;;;;;;;57.80;27.23;;;;;;;14.29;94.59;100953.88;4992891;28;20045;-73
2021/07/28 04:31:26;;;;;;;64.38;29.27;;;;;;;14.29;94.97;100950.38;4992167;28;20030;-73
2021/07/28 04:33:51;;;;;;;47.28;25.42;;;;;;;14.29;94.32;100959.25;4993128;28;20058;-72
2021/07/28 04:36:16;;;;;;;39.63;23.83;;;;;;;14.36;93.96;100963.94;4992907;28;20105;-72
2021/07/28 04:38:42;;;;;;;48.53;22.92;;;;;;;14.38;93.69;100964.63;4993147;28;20030;-72
2021/07/28 04:41:07;;;;;;;35.40;20.63;;;;;;;14.38;93.05;100965.47;4992653;28;20486;-73
2021/07/28 04:43:32;;;;;;;34.63;21.05;;;;;;;14.33;92.84;100958.91;4993148;28;20367;-72
2021/07/28 04:45:59;;;;;;;41.97;21.40;;;;;;;14.27;92.83;100966.59;4992343;28;20394;-72
2021/07/28 04:48:26;;;;;;;37.22;20.45;;;;;;;14.24;92.85;100958.91;4993021;28;20069;-72
2021/07/28 04:50:53;;;;;;;38.38;21.20;;;;;;;14.24;92.91;100960.72;4993165;28;20030;-71
2021/07/28 04:53:18;;;;;;;34.15;21.23;;;;;;;14.22;93.29;100958.19;4992504;28;20387;-71
2021/07/28 04:55:50;;;;;;;41.65;20.77;;;;;;;14.21;93.33;100956.53;4993215;28;20030;-71
2021/07/28 04:58:16;;;;;;;35.60;18.83;;;;;;;14.23;93.44;100953.69;4992397;28;20030;-71
2021/07/28 05:00:41;;;;;;;29.83;17.90;;;;;;;14.25;93.04;100954.38;4992877;28;20027;-72
2021/07/28 05:03:06;;;;;;;35.85;19.48;;;;;;;14.25;92.62;100960.56;4992131;28;20122;-69
2021/07/28 05:05:32;;;;;;;31.92;18.15;;;;;;;14.27;92.59;100960.38;4992358;28;20090;-72
2021/07/28 05:07:57;;;;;;;32.30;17.70;;;;;;;14.27;93.18;100960.38;4992606;28;20062;-72
2021/07/28 05:10:22;;;;;;;30.95;15.63;;;;;;;14.29;93.09;100958.41;4992712;28;20034;-73
2021/07/28 05:12:48;;;;;;;27.65;14.23;;;;;;;14.33;92.36;100959.78;4995261;28;20066;-73
2021/07/28 05:15:13;;;;;;;27.17;14.63;;;;;;;14.38;92.19;100968.16;4998177;28;20467;-72
2021/07/28 05:17:38;;;;;;;28.20;13.88;;;;;;;14.44;92.28;100964.81;4996597;28;20500;-74
2021/07/28 05:20:04;;;;;;;21.48;12.52;;;;;;;14.51;91.76;100964.16;4994451;28;20065;-74
2021/07/28 05:22:30;;;;;;;18.85;10.27;;;;;;;14.56;90.46;100949.31;4997229;28;20049;-73
2021/07/28 05:24:55;;;;;;;22.25;10.70;;;;;;;14.59;90.99;100967.72;4996854;28;20042;-75
2021/07/28 05:27:21;;;;;;;22.17;10.27;;;;;;;14.63;91.15;100945.00;4995783;28;20034;-73
2021/07/28 05:29:46;;;;;;;16.60;10.02;;;;;;;14.69;90.61;100948.88;4997328;28;20042;-73
2021/07/28 05:32:12;;;;;;;17.10;9.77;;;;;;;14.71;90.14;100949.53;4996761;28;20034;-73
2021/07/28 05:34:37;;;;;;;18.50;10.23;;;;;;;14.71;90.60;100943.38;4996787;28;20487;-71
2021/07/28 05:37:03;;;;;;;16.73;9.25;;;;;;;14.71;89.43;100941.50;4995798;28;20042;-72
2021/07/28 05:39:28;;;;;;;20.95;9.68;;;;;;;14.71;89.48;100946.88;4996674;28;20038;-72
2021/07/28 05:41:56;;;;;;;18.73;10.23;;;;;;;14.68;89.37;100951.72;4996310;28;20537;-70
2021/07/28 05:44:22;;;;;;;19.92;11.00;;;;;;;14.63;88.56;100945.00;4995561;28;20034;-70
2021/07/28 05:46:47;;;;;;;19.27;10.35;;;;;;;14.64;88.73;100943.16;4996429;28;20347;-72
2021/07/28 05:49:12;;;;;;;27.33;12.75;;;;;;;14.68;90.40;100952.56;4995849;28;20041;-71
2021/07/28 05:51:38;;;;;;;18.55;11.52;;;;;;;14.74;89.31;100946.53;4996412;28;20106;-71
2021/07/28 05:54:03;;;;;;;23.75;12.45;;;;;;;14.90;90.16;100945.75;4996352;28;20040;-70
2021/07/28 05:56:29;;;;;;;28.27;12.52;;;;;;;15.05;89.17;100951.28;4993893;28;20129;-73
2021/07/28 05:58:54;;;;;;;21.25;10.90;;;;;;;15.24;88.76;100952.81;4995882;28;20108;-70
2021/07/28 06:01:20;;;;;;;24.23;10.70;;;;;;;15.41;86.75;100944.78;4995405;28;20490;-72
2021/07/28 06:03:46;;;;;;;19.30;9.95;;;;;;;15.47;86.15;100950.28;4996140;28;20061;-71
2021/07/28 06:06:11;;;;;;;17.95;9.65;;;;;;;15.50;85.88;100949.94;4995222;28;20462;-72
2021/07/28 06:08:37;;;;;;;19.33;10.20;;;;;;;15.48;86.01;100949.28;4996398;28;20042;-73
2021/07/28 06:11:02;;;;;;;15.73;9.15;;;;;;;15.50;84.85;100944.59;4996109;28;20085;-72
2021/07/28 06:13:28;;;;;;;23.90;9.88;;;;;;;15.53;86.52;100940.75;4995327;28;20041;-72
2021/07/28 06:15:53;;;;;;;18.27;10.27;;;;;;;15.60;86.66;100940.88;4994522;28;20041;-72
2021/07/28 06:18:19;;;;;;;18.42;10.02;;;;;;;15.62;86.03;100939.72;4995418;28;20065;-71
2021/07/28 06:20:44;;;;;;;18.08;9.20;;;;;;;15.62;84.96;100946.94;4995435;28;20054;-71
2021/07/28 06:23:09;;;;;;;16.33;9.70;;;;;;;15.60;85.67;100938.19;4991571;28;20034;-73
2021/07/28 06:25:35;;;;;;;17.35;8.52;;;;;;;15.57;84.46;100942.09;4993175;28;20371;-72
2021/07/28 06:28:00;;;;;;;17.38;8.25;;;;;;;15.57;85.62;100942.09;4992944;28;20030;-72
2021/07/28 06:30:25;;;;;;;16.17;8.30;;;;;;;15.59;85.09;100940.06;4992040;28;20416;-71
2021/07/28 06:32:51;;;;;;;18.63;8.07;;;;;;;15.67;85.98;100947.25;4992743;28;20052;-72
2021/07/28 06:35:16;;;;;;;14.00;8.23;;;;;;;15.73;84.65;100949.25;4992123;28;20368;-72
2021/07/28 06:37:42;;;;;;;13.10;7.47;;;;;;;15.71;85.64;100953.97;4992804;28;20498;-72
2021/07/28 06:40:08;;;;;;;14.15;7.88;;;;;;;15.69;84.53;100948.75;4992543;28;20038;-71
2021/07/28 06:42:33;;;;;;;23.00;9.40;;;;;;;15.69;84.65;100950.63;4992656;28;20534;-73
2021/07/28 06:44:59;;;;;;;18.05;8.52;;;;;;;15.72;84.22;100950.28;4992559;28;20069;-72
2021/07/28 06:47:24;;;;;;;15.32;8.68;;;;;;;15.72;84.65;100944.91;4991529;28;20062;-73
2021/07/28 06:49:50;;;;;;;11.70;8.60;;;;;;;15.69;84.60;100948.75;4992665;28;20046;-72
2021/07/28 06:52:15;;;;;;;15.80;9.40;;;;;;;15.70;84.22;100941.53;4991691;28;20034;-71
2021/07/28 06:54:40;;;;;;;20.58;9.57;;;;;;;15.78;83.59;100946.09;4991983;28;20038;-71
2021/07/28 06:57:06;;;;;;;15.10;9.30;;;;;;;15.87;83.62;100945.09;4992228;28;20034;-72
2021/07/28 06:59:31;;;;;;;13.05;8.05;;;;;;;15.99;83.21;100946.38;4990327;28;20501;-71
2021/07/28 07:01:56;;;;;;;17.67;8.70;;;;;;;16.09;83.36;100948.84;4992199;28;20038;-70
2021/07/28 07:04:22;;;;;;;17.83;8.70;;;;;;;16.24;82.59;100943.59;4991904;28;20034;-70
2021/07/28 07:06:47;;;;;;;12.55;8.20;;;;;;;16.36;82.08;100936.84;4990654;28;20577;-71
2021/07/28 07:09:12;;;;;;;14.48;7.13;;;;;;;16.44;81.39;100940.53;4992075;28;20058;-71
2021/07/28 07:11:37;;;;;;;13.63;7.70;;;;;;;16.45;81.68;100940.34;4992004;28;20529;-71
2021/07/28 07:14:03;;;;;;;13.90;7.22;;;;;;;16.47;81.58;100949.06;4992001;28;20490;-72
2021/07/28 07:16:28;;;;;;;18.48;8.18;;;;;;;16.40;81.25;100946.22;4991208;28;20061;-71
2021/07/28 07:18:54;;;;;;;14.07;7.32;;;;;;;16.32;81.55;100946.25;4991268;28;20034;-71
2021/07/28 07:21:19;;;;;;;19.45;7.43;;;;;;;16.32;81.68;100945.44;4991088;28;20096;-70
2021/07/28 07:23:45;;;;;;;16.40;7.25;;;;;;;16.36;81.48;100941.38;4991652;28;20076;-71
2021/07/28 07:26:10;;;;;;;14.98;7.28;;;;;;;16.44;80.98;100945.91;4991795;28;20070;-72
2021/07/28 07:28:35;;;;;;;19.35;6.80;;;;;;;16.45;80.94;100944.88;4991043;28;20072;-72
2021/07/28 07:31:02;;;;;;;13.80;7.13;;;;;;;16.52;79.97;100945.84;4991230;28;20038;-72
2021/07/28 07:33:40;;;;;;;12.55;6.13;;;;;;;16.69;79.52;100939.38;4990937;28;20045;-71
2021/07/28 07:36:17;;;;;;;13.93;6.43;;;;;;;16.92;78.12;100947.47;4991480;28;20050;-72
2021/07/28 07:38:43;;;;;;;14.70;6.60;;;;;;;17.06;78.99;100939.66;4991437;28;20080;-71
2021/07/28 07:41:09;;;;;;;12.75;5.60;;;;;;;17.12;76.99;100935.41;4991294;28;20065;-72
2021/07/28 07:43:34;;;;;;;20.23;6.85;;;;;;;17.17;78.21;100933.88;4990591;28;20447;-72
2021/07/28 07:46:00;;;;;;;15.63;6.18;;;;;;;17.08;78.49;100943.84;4991446;28;20038;-73
2021/07/28 07:48:26;;;;;;;22.27;6.78;;;;;;;17.02;79.25;100939.19;4991089;28;20505;-71
2021/07/28 07:50:52;;;;;;;14.63;5.75;;;;;;;16.87;76.88;100941.00;4991374;28;20041;-71
2021/07/28 07:53:18;;;;;;;16.60;6.35;;;;;;;16.82;76.74;100941.47;4990609;28;20038;-70
2021/07/28 07:55:43;;;;;;;12.13;5.60;;;;;;;16.84;77.27;100944.81;4991009;28;20038;-70
2021/07/28 07:58:09;;;;;;;15.18;5.88;;;;;;;16.86;78.53;100939.28;4989651;28;20473;-70
2021/07/28 08:00:35;;;;;;;17.73;6.30;;;;;;;16.84;77.56;100938.59;4990262;28;20035;-73
2021/07/28 08:03:00;;;;;;;12.25;5.72;;;;;;;16.85;76.87;100951.03;4991140;28;20173;-72
2021/07/28 08:05:25;;;;;;;16.63;5.90;;;;;;;16.76;77.78;100944.88;4990448;28;20065;-71
2021/07/28 08:07:51;;;;;;;12.38;6.03;;;;;;;16.73;78.38;100947.91;4989518;28;20030;-71
2021/07/28 08:10:16;;;;;;;12.90;5.60;;;;;;;16.77;78.42;100943.03;4990853;28;20394;-70
2021/07/28 08:12:42;;;;;;;19.35;6.25;;;;;;;16.80;78.72;100948.88;4990228;28;20042;-71
2021/07/28 08:15:07;;;;;;;12.77;5.90;;;;;;;16.75;78.34;100952.09;4991172;28;20552;-72
2021/07/28 08:17:33;;;;;;;13.65;6.30;;;;;;;16.70;78.90;100943.72;4989953;28;20128;-70
2021/07/28 08:20:00;;;;;;;15.18;5.78;;;;;;;16.65;78.51;100945.28;4990652;28;20462;-72
2021/07/28 08:22:26;;;;;;;10.95;6.25;;;;;;;16.58;79.62;100955.88;4989981;28;20475;-70
2021/07/28 08:24:51;;;;;;;12.70;5.90;;;;;;;16.52;79.72;100953.91;4990467;28;20045;-71
2021/07/28 08:27:16;;;;;;;22.92;6.63;;;;;;;16.40;79.75;100945.38;4990525;28;20530;-71
2021/07/28 08:29:42;;;;;;;13.38;5.95;;;;;;;16.50;80.48;100954.06;4989922;28;20037;-72
2021/07/28 08:32:07;;;;;;;12.88;5.95;;;;;;;16.66;79.28;100950.47;4990769;28;20038;-72
2021/07/28 08:34:33;;;;;;;16.80;6.60;;;;;;;16.89;80.27;100944.31;4990039;28;20045;-71
2021/07/28 08:36:59;;;;;;;20.83;5.80;;;;;;;17.06;78.97;100945.88;4990458;28;20655;-71
2021/07/28 08:39:24;;;;;;;19.85;7.07;;;;;;;17.14;79.12;100947.69;4990159;28;20034;-72
2021/07/28 08:41:52;;;;;;;9.88;6.43;;;;;;;17.16;78.06;100944.81;4990633;28;20042;-71
2021/07/28 08:44:20;;;;;;;14.13;7.13;;;;;;;17.09;79.26;100950.91;4989989;28;20038;-72
2021/07/28 08:46:46;;;;;;;12.45;7.70;;;;;;;17.03;80.47;100956.16;4988181;28;20034;-74
2021/07/28 08:49:14;;;;;;;15.10;6.35;;;;;;;17.02;77.61;100954.50;4990380;28;20041;-71
2021/07/28 08:51:43;;;;;;;13.98;7.40;;;;;;;16.94;79.55;100949.97;4989831;28;20033;-72
2021/07/28 08:54:10;;;;;;;13.07;7.20;;;;;;;16.92;80.34;100962.78;4990351;28;20038;-70
2021/07/28 08:56:41;;;;;;;12.57;7.25;;;;;;;17.02;80.07;100955.31;4989447;28;20034;-68
2021/07/28 08:59:26;;;;;;;;;;;;;;;17.14;79.48;100947.69;4990868;28;20049;-71
2021/07/28 09:01:53;;;;;;;12.07;6.18;;;;;;;17.43;76.90;100954.97;4989999;28;19910;-70
2021/07/28 09:04:19;;;;;;;20.45;6.40;;;;;;;17.67;76.93;100946.88;4990206;28;20525;-71
2021/07/28 09:06:45;;;;;;;15.93;6.70;;;;;;;17.66;76.09;100954.13;4988001;28;20030;-70
2021/07/28 09:09:10;;;;;;;12.68;6.05;;;;;;;17.59;76.23;100945.94;4989988;28;20478;-71
2021/07/28 09:11:56;;;;;;;18.98;5.57;;;;;;;17.57;75.10;100957.88;4989627;28;20034;-72
2021/07/28 09:14:24;;;;;;;10.77;5.22;;;;;;;17.77;74.59;100960.91;4989993;28;20441;-71
2021/07/28 09:16:51;;;;;;;9.15;5.10;;;;;;;17.82;75.76;100952.28;4989277;28;20113;-71
2021/07/28 09:19:41;;;;;;;14.63;5.45;;;;;;;18.08;72.91;100955.41;4989556;28;20042;-72
2021/07/28 09:22:07;;;;;;;13.15;5.10;;;;;;;18.35;72.73;100953.06;4990356;28;20058;-73
2021/07/28 09:24:33;;;;;;;17.73;5.13;;;;;;;18.43;74.03;100960.19;4989723;28;20034;-71
2021/07/28 09:26:58;;;;;;;13.68;5.03;;;;;;;18.54;72.16;100948.94;4990193;28;20080;-71
2021/07/28 09:29:30;;;;;;;9.93;4.38;;;;;;;18.72;71.50;100958.47;4990579;28;20464;-71
2021/07/28 09:32:07;;;;;;;13.68;4.68;;;;;;;18.88;71.30;100942.09;4992849;28;20029;-71
2021/07/28 09:34:37;;;;;;;13.38;4.80;;;;;;;18.92;70.77;100943.38;4992592;28;20038;-71
2021/07/28 09:37:15;;;;;;;8.27;3.78;;;;;;;19.04;68.70;100943.69;4989991;28;20085;-71
2021/07/28 09:39:46;;;;;;;13.25;4.43;;;;;;;19.22;69.85;100947.81;4990782;28;20038;-71
2021/07/28 09:42:15;;;;;;;14.27;5.03;;;;;;;19.60;68.98;100951.03;4990259;28;20045;-71
2021/07/28 09:44:45;;;;;;;10.07;4.35;;;;;;;20.35;67.55;100943.22;4987790;28;20479;-71
2021/07/28 09:47:21;;;;;;;20.75;4.47;;;;;;;20.53;64.69;100953.47;4989868;28;20042;-71
2021/07/28 09:50:10;;;;;;;16.73;4.40;;;;;;;20.63;64.81;100960.34;4989547;28;20477;-70
2021/07/28 09:52:36;;;;;;;9.82;4.40;;;;;;;20.66;64.96;100954.56;4989344;28;20121;-71
2021/07/28 09:55:25;;;;;;;19.55;4.45;;;;;;;20.61;63.14;100949.75;4989496;28;20112;-70
2021/07/28 09:57:58;;;;;;;6.93;3.60;;;;;;;20.56;63.18;100950.34;4991754;28;20082;-71
2021/07/28 10:00:27;;;;;;;10.15;4.00;;;;;;;20.12;62.71;100953.47;4993332;28;20149;-71
2021/07/28 10:02:57;;;;;;;16.88;4.57;;;;;;;20.04;66.15;100957.19;4993133;28;20041;-71
2021/07/28 10:05:25;;;;;;;13.27;4.57;;;;;;;19.92;64.99;100956.91;4993174;28;20030;-71
2021/07/28 10:07:54;;;;;;;14.15;4.15;;;;;;;19.65;65.39;100950.47;4992510;28;20301;-76
2021/07/28 10:10:19;;;;;;;10.20;4.05;;;;;;;19.86;64.58;100946.88;4993282;28;20037;-79
2021/07/28 10:12:49;;;;;;;10.55;4.38;;;;;;;20.17;63.75;100959.09;4992712;28;20398;-75
2021/07/28 10:15:14;;;;;;;13.80;4.30;;;;;;;20.07;65.15;100948.69;4993286;28;20510;-71
2021/07/28 10:17:41;;;;;;;13.05;3.90;;;;;;;20.35;64.72;100956.72;4992467;28;20035;-71
2021/07/28 10:20:12;;;;;;;9.65;3.70;;;;;;;20.68;61.75;100950.63;4992756;28;20058;-76
2021/07/28 10:22:40;;;;;;;9.50;3.30;;;;;;;21.20;60.51;100950.09;4992782;28;20062;-74
2021/07/28 10:25:13;;;;;;;14.43;4.30;;;;;;;21.05;60.69;100955.69;4992958;28;20049;-73
2021/07/28 10:27:40;;;;;;;10.77;3.70;;;;;;;20.68;62.53;100944.41;4992180;28;20467;-72
2021/07/28 10:30:07;;;;;;;9.90;3.38;;;;;;;20.09;62.68;100954.69;4992702;28;20141;-71
2021/07/28 10:32:34;;;;;;;14.43;4.00;;;;;;;19.94;63.85;100956.69;4992372;28;20046;-72
2021/07/28 10:35:18;;;;;;;13.88;3.90;;;;;;;19.86;63.71;100949.59;4992268;28;20062;-70
2021/07/28 10:37:45;;;;;;;12.13;4.03;;;;;;;19.63;65.50;100955.19;4992559;28;20030;-71
2021/07/28 10:40:31;;;;;;;8.43;3.40;;;;;;;19.65;65.05;100963.94;4991124;28;20109;-74
2021/07/28 10:42:57;;;;;;;14.25;4.05;;;;;;;19.64;65.39;100955.00;4991776;28;20029;-72
2021/07/28 10:45:26;;;;;;;11.32;3.90;;;;;;;19.61;65.71;100947.28;4992592;28;20034;-73
2021/07/28 10:47:52;;;;;;;10.93;3.97;;;;;;;19.61;67.02;100957.28;4991743;28;20084;-71
2021/07/28 10:50:20;;;;;;;13.02;3.83;;;;;;;19.38;67.11;100963.72;4991471;28;20035;-71
2021/07/28 10:52:48;;;;;;;9.70;4.20;;;;;;;19.25;67.58;100967.13;4992962;28;20067;-71
2021/07/28 10:55:16;;;;;;;11.13;3.90;;;;;;;19.10;68.50;100963.69;4992338;28;20404;-70
2021/07/28 10:57:44;;;;;;;11.18;3.95;;;;;;;18.84;70.25;100978.53;4991807;28;20475;-71
2021/07/28 11:00:11;;;;;;;9.98;3.97;;;;;;;18.56;72.70;100971.13;4992585;28;20040;-71
2021/07/28 11:02:55;;;;;;;11.15;4.25;;;;;;;18.44;74.20;100964.56;4992549;28;20487;-72
2021/07/28 11:05:20;;;;;;;16.25;4.47;;;;;;;18.38;75.72;100974.22;4992175;28;20031;-71
2021/07/28 11:08:04;;;;;;;12.00;4.75;;;;;;;18.29;74.24;100984.25;4990913;28;20041;-72
2021/07/28 11:10:31;;;;;;;10.75;4.57;;;;;;;18.42;73.58;100969.28;4992087;28;20030;-71
2021/07/28 11:12:57;;;;;;;12.38;4.60;;;;;;;18.73;74.24;100977.13;4991242;28;20537;-71